createdAt,value
2018-06-13T00:01:20.323Z,97590.77
2018-06-13T00:03:50.543Z,97591.03
2018-06-13T00:06:21.484Z,97592.29
2018-06-13T00:18:57.652Z,97591.00
2018-06-13T00:21:34.924Z,97581.41
2018-06-13T00:24:39.139Z,97579.41
2018-06-13T00:27:08.964Z,97579.98
2018-06-13T00:29:39.360Z,97580.31
2018-06-13T00:32:09.651Z,97590.84
2018-06-13T00:34:39.441Z,97594.56
2018-06-13T00:37:09.175Z,97597.41
2018-06-13T00:39:39.447Z,97596.25
2018-06-13T00:42:09.392Z,97599.08
2018-06-13T00:44:39.520Z,97592.13
2018-06-13T00:47:09.247Z,97598.30
2018-06-13T00:49:40.597Z,97601.88
2018-06-13T00:52:10.390Z,97599.23
2018-06-13T00:54:40.124Z,97612.41
2018-06-13T00:57:10.165Z,97579.43
2018-06-13T01:00:16.757Z,97599.95
2018-06-13T01:02:47.300Z,97600.28
2018-06-13T01:05:17.319Z,97607.13
2018-06-13T01:07:47.249Z,97606.69
2018-06-13T01:10:17.524Z,97603.30
2018-06-13T01:15:29.856Z,97602.45
2018-06-13T01:18:01.435Z,97604.75
2018-06-13T01:20:40.483Z,97607.45
2018-06-13T01:23:10.590Z,97600.19
2018-06-13T01:25:50.006Z,97606.17
2018-06-13T01:28:20.634Z,97610.96
2018-06-13T01:30:50.792Z,97601.34
2018-06-13T01:33:30.110Z,97602.96
2018-06-13T01:36:00.783Z,97601.31
2018-06-13T01:43:34.769Z,97601.53
2018-06-13T01:46:17.769Z,97593.75
2018-06-13T01:51:30.868Z,97605.58
2018-06-13T01:54:16.184Z,97604.38
2018-06-13T01:56:46.270Z,97598.23
2018-06-13T01:59:16.223Z,97608.85
2018-06-13T02:01:48.816Z,97607.42
2018-06-13T02:04:18.753Z,97603.34
2018-06-13T02:06:48.784Z,97595.62
2018-06-13T02:09:18.738Z,97602.22
2018-06-13T02:11:49.998Z,97604.97
2018-06-13T02:14:19.944Z,97608.11
2018-06-13T02:16:49.988Z,97604.41
2018-06-13T02:19:24.121Z,97611.93
2018-06-13T02:21:54.634Z,97616.94
2018-06-13T02:24:24.504Z,97617.67
2018-06-13T02:26:54.472Z,97615.77
2018-06-13T02:29:24.373Z,97609.34
2018-06-13T02:31:56.844Z,97616.61
2018-06-13T02:34:26.824Z,97613.66
2018-06-13T02:36:56.828Z,97618.64
2018-06-13T02:39:26.682Z,97614.02
2018-06-13T02:41:56.568Z,97616.18
2018-06-13T02:44:26.484Z,97623.92
2018-06-13T02:46:57.169Z,97621.30
2018-06-13T02:49:27.347Z,97622.50
2018-06-13T02:51:57.266Z,97623.69
2018-06-13T02:54:27.118Z,97624.41
2018-06-13T02:56:57.056Z,97595.44
2018-06-13T02:59:26.917Z,97626.91
2018-06-13T03:01:57.159Z,97622.05
2018-06-13T03:04:27.072Z,97626.20
2018-06-13T03:06:57.021Z,97640.42
2018-06-13T03:09:26.908Z,97634.46
2018-06-13T03:12:24.654Z,97640.19
2018-06-13T03:14:55.149Z,97640.56
2018-06-13T03:17:25.671Z,97643.66
2018-06-13T03:19:57.997Z,97639.02
2018-06-13T03:28:23.812Z,97648.31
2018-06-13T03:30:53.746Z,97654.50
2018-06-13T03:33:23.324Z,97648.31
2018-06-13T03:35:54.384Z,97658.70
2018-06-13T03:38:24.196Z,97652.85
2018-06-13T03:40:53.879Z,97653.69
2018-06-13T03:43:23.729Z,97654.53
2018-06-13T03:45:53.737Z,97652.85
2018-06-13T03:48:23.251Z,97652.72
2018-06-13T03:50:53.612Z,97657.12
2018-06-13T03:54:21.563Z,97661.80
2018-06-13T03:56:51.161Z,97656.55
2018-06-13T03:59:21.670Z,97658.55
2018-06-13T04:01:51.331Z,97659.39
2018-06-13T04:04:21.477Z,97658.69
2018-06-13T04:06:51.051Z,97665.70
2018-06-13T04:09:22.814Z,97669.53
2018-06-13T04:11:52.463Z,97672.16
2018-06-13T04:14:21.941Z,97674.05
2018-06-13T04:16:51.435Z,97667.25
2018-06-13T04:19:22.269Z,97679.91
2018-06-13T04:21:52.125Z,97674.64
2018-06-13T04:24:21.528Z,97679.65
2018-06-13T04:26:56.616Z,97672.61
2018-06-13T04:29:28.923Z,97677.98
2018-06-13T05:24:36.013Z,97727.64
2018-06-13T05:27:07.080Z,97723.92
2018-06-13T05:29:36.824Z,97728.00
2018-06-13T05:32:06.499Z,97730.13
2018-06-13T05:34:37.378Z,97736.36
2018-06-13T05:37:25.643Z,97733.27
2018-06-13T05:39:55.920Z,97733.62
2018-06-13T05:42:25.430Z,97742.34
2018-06-13T05:45:01.292Z,97737.44
2018-06-13T05:47:31.007Z,97740.30
2018-06-13T05:50:00.426Z,97744.71
2018-06-13T05:52:30.204Z,97742.09
2018-06-13T05:55:00.591Z,97732.53
2018-06-13T05:57:30.006Z,97751.73
2018-06-13T05:59:59.656Z,97752.48
2018-06-13T06:02:29.054Z,97756.28
2018-06-13T06:04:58.495Z,97762.63
2018-06-13T06:07:27.863Z,97758.80
2018-06-13T06:09:57.797Z,97761.77
2018-06-13T06:12:27.237Z,97760.70
2018-06-13T06:14:59.626Z,97769.02
2018-06-13T06:17:29.466Z,97776.40
2018-06-13T06:19:59.076Z,97770.41
2018-06-13T06:22:28.477Z,97771.09
2018-06-13T06:24:57.961Z,97772.77
2018-06-13T06:27:32.611Z,97776.11
2018-06-13T06:30:02.026Z,97775.41
2018-06-13T06:32:31.408Z,97774.45
2018-06-13T06:35:01.325Z,97783.38
2018-06-13T06:37:30.793Z,97783.05
2018-06-13T06:40:00.344Z,97789.88
2018-06-13T06:42:29.821Z,97789.16
2018-06-13T06:44:59.522Z,97799.16
2018-06-13T06:47:28.953Z,97794.86
2018-06-13T06:49:58.416Z,97783.59
2018-06-13T06:52:27.865Z,97790.61
2018-06-13T06:54:57.740Z,97789.63
2018-06-13T06:57:27.324Z,97785.30
2018-06-13T06:59:56.962Z,97792.32
2018-06-13T07:02:26.557Z,97795.95
2018-06-13T07:04:56.141Z,97797.04
2018-06-13T07:07:25.616Z,97798.80
2018-06-13T07:09:56.385Z,97802.67
2018-06-13T07:12:26.053Z,97808.84
2018-06-13T07:14:55.942Z,97813.41
2018-06-13T07:17:25.668Z,97811.62
2018-06-13T07:19:55.095Z,97807.63
2018-06-13T07:22:24.487Z,97805.95
2018-06-13T07:24:53.893Z,97810.70
2018-06-13T07:27:23.629Z,97815.27
2018-06-13T07:29:53.076Z,97814.13
2018-06-13T07:32:22.770Z,97820.86
2018-06-13T07:34:52.216Z,97825.56
2018-06-13T07:37:21.709Z,97818.00
2018-06-13T07:39:51.135Z,97819.98
2018-06-13T07:42:22.003Z,97826.93
2018-06-13T07:44:51.415Z,97825.70
2018-06-13T07:47:20.824Z,97823.77
2018-06-13T07:49:50.227Z,97833.23
2018-06-13T07:52:23.492Z,97831.02
2018-06-13T07:54:52.977Z,97834.77
2018-06-13T07:57:22.421Z,97845.89
2018-06-13T07:59:51.824Z,97840.61
2018-06-13T08:02:21.676Z,97837.80
2018-06-13T08:04:51.045Z,97836.69
2018-06-13T08:07:20.458Z,97837.80
2018-06-13T08:09:49.903Z,97830.98
2018-06-13T08:12:20.186Z,97839.86
2018-06-13T08:14:49.605Z,97837.06
2018-06-13T08:17:19.139Z,97833.99
2018-06-13T08:19:48.685Z,97841.75
2018-06-13T08:22:18.452Z,97844.33
2018-06-13T08:24:55.204Z,97848.30
2018-06-13T08:27:24.674Z,97842.55
2018-06-13T08:29:54.367Z,97845.69
2018-06-13T08:32:24.453Z,97848.59
2018-06-13T08:34:53.838Z,97849.05
2018-06-13T08:37:24.582Z,97853.95
2018-06-13T08:39:54.109Z,97856.91
2018-06-13T08:42:23.628Z,97848.31
2018-06-13T08:44:52.960Z,97851.49
2018-06-13T08:47:23.275Z,97847.97
2018-06-13T08:49:52.688Z,97859.27
2018-06-13T08:52:22.187Z,97858.03
2018-06-13T08:54:51.561Z,97852.04
2018-06-13T08:57:21.300Z,97858.81
2018-06-13T08:59:50.949Z,97867.27
2018-06-13T09:02:20.393Z,97863.59
2018-06-13T09:04:50.294Z,97866.67
2018-06-13T09:07:19.701Z,97867.30
2018-06-13T09:09:49.095Z,97879.59
2018-06-13T09:12:19.005Z,97873.39
2018-06-13T09:14:48.456Z,97864.70
2018-06-13T09:17:18.299Z,97869.16
2018-06-13T09:19:47.709Z,97884.42
2018-06-13T09:22:17.405Z,97877.27
2018-06-13T09:24:47.064Z,97887.22
2018-06-13T09:27:16.505Z,97887.16
2018-06-13T09:29:45.963Z,97887.49
2018-06-13T09:32:15.431Z,97878.94
2018-06-13T09:34:44.785Z,97890.20
2018-06-13T09:37:14.514Z,97889.39
2018-06-13T09:39:43.962Z,97887.42
2018-06-13T09:42:13.357Z,97890.97
2018-06-13T09:44:42.766Z,97895.59
2018-06-13T09:47:15.130Z,97893.39
2018-06-13T09:49:42.244Z,97887.28
2018-06-13T09:52:11.899Z,97892.53
2018-06-13T09:54:41.287Z,97886.80
2018-06-13T09:57:10.669Z,97894.58
2018-06-13T09:59:45.612Z,97896.87
2018-06-13T10:02:18.534Z,97897.33
2018-06-13T10:04:48.648Z,97893.91
2018-06-13T10:07:20.352Z,97900.30
2018-06-13T10:09:50.032Z,97910.82
2018-06-13T10:12:19.615Z,97916.91
2018-06-13T10:14:49.176Z,97910.72
2018-06-13T10:17:18.638Z,97911.05
2018-06-13T10:19:48.296Z,97911.80
2018-06-13T10:22:17.824Z,97920.25
2018-06-13T10:24:47.200Z,97924.08
2018-06-13T10:27:22.106Z,97924.81
2018-06-13T10:29:51.451Z,97929.38
2018-06-13T10:32:20.820Z,97925.88
2018-06-13T10:34:50.492Z,97928.50
2018-06-13T10:37:19.933Z,97929.61
2018-06-13T10:39:49.388Z,97941.06
2018-06-13T10:42:19.208Z,97934.78
2018-06-13T10:44:48.799Z,97949.00
2018-06-13T10:47:18.311Z,97948.31
2018-06-13T10:49:47.971Z,97946.84
2018-06-13T10:52:17.375Z,97947.33
2018-06-13T10:54:46.718Z,97939.47
2018-06-13T10:57:16.415Z,97955.94
2018-06-13T10:59:45.843Z,97943.56
2018-06-13T11:02:15.294Z,97939.24
2018-06-13T11:04:45.122Z,97948.34
2018-06-13T11:07:14.516Z,97935.39
2018-06-13T11:09:43.942Z,97942.26
2018-06-13T11:12:13.860Z,97945.49
2018-06-13T11:14:43.230Z,97947.59
2018-06-13T11:17:12.635Z,97945.39
2018-06-13T11:19:42.294Z,97950.81
2018-06-13T11:22:11.687Z,97952.88
2018-06-13T11:24:41.343Z,97942.07
2018-06-13T11:27:11.269Z,97944.66
2018-06-13T11:29:40.676Z,97949.69
2018-06-13T11:32:10.043Z,97946.81
2018-06-13T11:34:41.897Z,97946.75
2018-06-13T11:37:11.266Z,97949.75
2018-06-13T11:39:40.653Z,97945.77
2018-06-13T11:42:10.353Z,97953.88
2018-06-13T11:44:39.702Z,97954.50
2018-06-13T11:47:09.272Z,97965.34
2018-06-13T11:49:38.708Z,97959.02
2018-06-13T11:52:08.443Z,97963.27
2018-06-13T11:54:37.984Z,97957.78
2018-06-13T11:57:07.724Z,97956.52
2018-06-13T11:59:37.447Z,97953.70
2018-06-13T12:02:07.497Z,97964.00
2018-06-13T12:04:37.026Z,97957.62
2018-06-13T12:07:06.589Z,97958.03
2018-06-13T12:09:36.639Z,97965.14
2018-06-13T12:12:06.377Z,97961.69
2018-06-13T12:14:35.992Z,97969.20
2018-06-13T12:17:07.306Z,97955.98
2018-06-13T12:19:36.785Z,97952.33
2018-06-13T12:22:06.569Z,97956.02
2018-06-13T12:24:37.761Z,97960.94
2018-06-13T12:27:07.504Z,97964.77
2018-06-13T12:29:36.936Z,97957.98
2018-06-13T12:32:11.429Z,97960.54
2018-06-13T12:34:40.934Z,97967.17
2018-06-13T12:37:10.295Z,97981.48
2018-06-13T12:39:42.293Z,97971.40
2018-06-13T12:42:11.701Z,97970.94
2018-06-13T12:44:41.128Z,97974.11
2018-06-13T12:47:10.941Z,97979.02
2018-06-13T12:49:40.447Z,97979.86
2018-06-13T12:52:09.901Z,97981.87
2018-06-13T12:54:39.645Z,97983.19
2018-06-13T12:57:09.058Z,97984.70
2018-06-13T12:59:38.448Z,97989.78
2018-06-13T13:02:08.305Z,97990.09
2018-06-13T13:04:37.799Z,97988.89
2018-06-13T13:07:07.351Z,97986.15
2018-06-13T13:09:37.148Z,97987.95
2018-06-13T13:12:06.776Z,97984.66
2018-06-13T13:14:37.208Z,97987.82
2018-06-13T13:17:08.176Z,97989.11
2018-06-13T13:19:37.869Z,97985.80
2018-06-13T13:22:07.773Z,97986.09
2018-06-13T13:24:37.518Z,97989.56
2018-06-13T13:27:07.089Z,97992.12
2018-06-13T13:29:36.661Z,97997.77
2018-06-13T13:32:06.502Z,97999.86
2018-06-13T13:34:37.121Z,97993.68
2018-06-13T13:37:07.196Z,97993.15
2018-06-13T13:39:39.264Z,97991.18
2018-06-13T13:42:08.900Z,97989.44
2018-06-13T13:44:38.448Z,97988.16
2018-06-13T13:47:10.322Z,98000.89
2018-06-13T13:49:39.694Z,97988.61
2018-06-13T13:52:09.276Z,97991.72
2018-06-13T13:54:39.131Z,97992.67
2018-06-13T13:57:08.600Z,97991.77
2018-06-13T13:59:38.025Z,97994.86
2018-06-13T14:02:08.265Z,97994.56
2018-06-13T14:04:37.720Z,98005.20
2018-06-13T14:07:07.247Z,97998.05
2018-06-13T14:09:38.438Z,98002.28
2018-06-13T14:12:08.117Z,98004.80
2018-06-13T14:14:37.612Z,98013.69
2018-06-13T14:17:08.543Z,98013.36
2018-06-13T14:19:37.971Z,98021.70
2018-06-13T14:22:07.590Z,98016.97
2018-06-13T14:24:37.270Z,98020.24
2018-06-13T14:27:06.776Z,98021.02
2018-06-13T14:29:46.698Z,98021.70
2018-06-13T14:32:16.670Z,98014.27
2018-06-13T14:34:46.095Z,98012.45
2018-06-13T14:37:15.780Z,98008.75
2018-06-13T14:39:46.327Z,98017.58
2018-06-13T14:42:15.932Z,98016.09
2018-06-13T14:44:45.472Z,98014.89
2018-06-13T14:47:15.119Z,98019.41
2018-06-13T14:49:44.459Z,98021.41
2018-06-13T14:52:13.868Z,98025.48
2018-06-13T14:54:43.643Z,98019.41
2018-06-13T14:57:13.048Z,98008.36
2018-06-13T14:59:42.661Z,98017.89
2018-06-13T15:02:13.245Z,98012.60
2018-06-13T15:04:45.189Z,98015.17
2018-06-13T15:07:14.572Z,98007.43
2018-06-13T15:09:45.338Z,98009.89
2018-06-13T15:12:14.771Z,98020.59
2018-06-13T15:14:44.208Z,98020.13
2018-06-13T15:17:13.923Z,98014.31
2018-06-13T15:19:43.549Z,98021.34
2018-06-13T15:22:13.585Z,98025.48
2018-06-13T15:24:43.032Z,98025.15
2018-06-13T15:27:12.954Z,98032.36
2018-06-13T15:29:42.612Z,98037.91
2018-06-13T15:32:12.796Z,98032.47
2018-06-13T15:34:42.456Z,98033.44
2018-06-13T15:37:12.067Z,98028.58
2018-06-13T15:39:43.820Z,98034.70
2018-06-13T15:42:13.258Z,98025.31
2018-06-13T15:44:42.760Z,98035.05
2018-06-13T15:47:13.132Z,98038.60
2018-06-13T15:49:42.652Z,98042.20
2018-06-13T15:52:12.193Z,98038.03
2018-06-13T15:54:41.675Z,98044.59
2018-06-13T15:57:11.460Z,98037.54
2018-06-13T15:59:40.929Z,98049.61
2018-06-13T16:02:11.048Z,98044.52
2018-06-13T16:04:40.488Z,98049.88
2018-06-13T16:07:10.104Z,98050.80
2018-06-13T16:09:40.220Z,98047.16
2018-06-13T16:12:09.757Z,98045.48
2018-06-13T16:14:39.218Z,98056.01
2018-06-13T16:17:08.921Z,98048.97
2018-06-13T16:19:39.658Z,98054.81
2018-06-13T16:22:09.250Z,98055.38
2018-06-13T16:24:38.895Z,98058.23
2018-06-13T16:27:08.507Z,98056.23
2018-06-13T16:29:37.920Z,98061.57
2018-06-13T16:32:08.250Z,98061.84
2018-06-13T16:34:38.199Z,98068.55
2018-06-13T16:37:08.588Z,98061.71
2018-06-13T16:39:39.647Z,98071.39
2018-06-13T16:42:14.777Z,98071.88
2018-06-13T16:44:44.487Z,98069.90
2018-06-13T16:47:14.184Z,98076.11
2018-06-13T16:49:44.061Z,98073.70
2018-06-13T16:52:25.710Z,98089.46
2018-06-13T16:55:03.489Z,98085.13
2018-06-13T16:57:33.248Z,98088.62
2018-06-13T17:00:03.518Z,98092.70
2018-06-13T17:02:34.786Z,98092.13
2018-06-13T17:05:05.912Z,98100.12
2018-06-13T17:07:39.299Z,98102.94
2018-06-13T17:10:09.729Z,98097.92
2018-06-13T17:12:41.132Z,98103.48
2018-06-13T17:15:12.484Z,98102.37
2018-06-13T17:17:42.394Z,98106.23
2018-06-13T17:20:13.546Z,98108.36
2018-06-13T17:22:43.033Z,98108.29
2018-06-13T17:25:13.011Z,98118.95
2018-06-13T17:27:43.562Z,98124.36
2018-06-13T17:30:13.111Z,98119.39
2018-06-13T17:32:43.232Z,98118.55
2018-06-13T17:35:14.408Z,98129.15
2018-06-13T17:37:43.965Z,98129.77
2018-06-13T17:40:13.838Z,98127.35
2018-06-13T17:42:44.498Z,98121.33
2018-06-13T17:45:20.486Z,98121.38
2018-06-13T17:47:50.582Z,98121.43
2018-06-13T17:50:21.852Z,98114.09
2018-06-13T17:52:52.449Z,98123.05
2018-06-13T17:55:28.401Z,98123.30
2018-06-13T17:57:58.305Z,98129.42
2018-06-13T18:00:27.899Z,98130.75
2018-06-13T18:02:57.660Z,98133.83
2018-06-13T18:05:28.041Z,98134.97
2018-06-13T18:07:58.180Z,98135.00
2018-06-13T18:10:30.738Z,98137.09
2018-06-13T18:13:00.211Z,98137.05
2018-06-13T18:15:30.947Z,98151.06
2018-06-13T18:18:01.500Z,98139.70
2018-06-13T18:20:34.290Z,98155.09
2018-06-13T18:23:04.436Z,98147.96
2018-06-13T18:25:33.878Z,98150.48
2018-06-13T18:28:03.889Z,98145.91
2018-06-13T18:30:33.948Z,98149.28
2018-06-13T18:33:03.509Z,98151.22
2018-06-13T18:35:33.020Z,98149.75
2018-06-13T18:38:03.037Z,98150.26
2018-06-13T18:40:32.711Z,98148.47
2018-06-13T18:43:02.389Z,98152.17
2018-06-13T18:45:32.067Z,98163.59
2018-06-13T18:48:01.661Z,98166.95
2018-06-13T18:50:31.144Z,98158.67
2018-06-13T18:53:00.945Z,98164.91
2018-06-13T18:55:30.899Z,98162.20
2018-06-13T18:58:00.418Z,98160.55
2018-06-13T19:00:30.607Z,98162.24
2018-06-13T19:03:00.188Z,98171.58
2018-06-13T19:05:30.309Z,98166.81
2018-06-13T19:08:00.150Z,98168.47
2018-06-13T19:10:30.045Z,98172.58
2018-06-13T19:12:59.492Z,98180.98
2018-06-13T19:15:29.187Z,98188.64
2018-06-13T19:17:59.260Z,98195.95
2018-06-13T19:20:29.411Z,98200.14
2018-06-13T19:23:00.706Z,98196.07
2018-06-13T19:25:30.401Z,98206.75
2018-06-13T19:27:59.974Z,98206.03
2018-06-13T19:30:30.043Z,98213.33
2018-06-13T19:32:59.668Z,98211.78
2018-06-13T19:35:29.413Z,98214.53
2018-06-13T19:37:59.433Z,98216.45
2018-06-13T19:40:28.884Z,98216.83
2018-06-13T19:42:58.321Z,98218.86
2018-06-13T19:45:28.344Z,98226.63
2018-06-13T19:48:03.213Z,98227.48
2018-06-13T19:50:32.664Z,98233.94
2018-06-13T19:53:07.471Z,98230.83
2018-06-13T19:55:42.312Z,98229.05
2018-06-13T19:58:12.115Z,98240.05
2018-06-13T20:00:41.681Z,98241.84
2018-06-13T20:03:16.450Z,98245.80
2018-06-13T20:05:46.255Z,98239.45
2018-06-13T20:08:15.641Z,98251.91
2018-06-13T20:10:45.034Z,98246.03
2018-06-13T20:13:19.932Z,98248.33
2018-06-13T20:15:54.453Z,98251.78
2018-06-13T20:18:29.220Z,98247.25
2018-06-13T20:20:58.622Z,98252.62
2018-06-13T20:23:28.066Z,98260.19
2018-06-13T20:26:02.908Z,98256.71
2018-06-13T20:28:37.707Z,98260.42
2018-06-13T20:31:12.509Z,98270.59
2018-06-13T20:33:42.055Z,98267.59
2018-06-13T20:36:11.699Z,98258.73
2018-06-13T20:38:41.726Z,98255.39
2018-06-13T20:41:11.128Z,98255.16
2018-06-13T20:43:42.385Z,98262.55
2018-06-13T20:46:12.034Z,98263.77
2018-06-13T20:48:41.457Z,98266.16
2018-06-13T20:51:11.432Z,98265.55
2018-06-13T20:53:40.776Z,98271.20
2018-06-13T20:56:10.227Z,98262.69
2018-06-13T20:58:39.926Z,98269.03
2018-06-13T21:01:09.597Z,98269.88
2018-06-13T21:03:39.295Z,98260.89
2018-06-13T21:06:10.505Z,98264.34
2018-06-13T21:08:40.141Z,98264.91
2018-06-13T21:11:09.735Z,98261.66
2018-06-13T21:13:41.555Z,98260.52
2018-06-13T21:16:11.724Z,98259.50
2018-06-13T21:24:46.183Z,98263.58
2018-06-13T21:27:15.926Z,98271.77
2018-06-13T21:29:45.330Z,98272.13
2018-06-13T21:32:14.808Z,98271.90
2018-06-13T21:34:44.329Z,98269.73
2018-06-13T21:37:13.949Z,98269.07
2018-06-13T21:39:43.392Z,98264.75
2018-06-13T21:42:13.163Z,98260.78
2018-06-13T21:44:44.484Z,98252.89
2018-06-13T21:47:14.046Z,98252.03
2018-06-13T21:49:44.280Z,98252.27
2018-06-13T21:52:13.963Z,98256.10
2018-06-13T21:54:43.381Z,98249.75
2018-06-13T21:57:13.048Z,98253.33
2018-06-13T21:59:43.903Z,98263.38
2018-06-13T22:02:13.283Z,98270.67
2018-06-13T22:04:42.730Z,98259.68
2018-06-13T22:07:12.547Z,98259.92
2018-06-13T22:09:42.004Z,98259.30
2018-06-13T22:12:11.473Z,98267.90
2018-06-13T22:14:42.574Z,98266.56
2018-06-13T22:17:13.535Z,98259.53
2018-06-13T22:19:43.041Z,98253.09
2018-06-13T22:22:12.748Z,98263.13
2018-06-13T22:24:42.109Z,98254.61
2018-06-13T22:27:11.870Z,98261.55
2018-06-13T22:29:41.550Z,98261.53
2018-06-13T22:32:11.178Z,98253.53
2018-06-13T22:34:40.564Z,98253.98
2018-06-13T22:37:10.184Z,98251.34
2018-06-13T22:39:39.598Z,98254.20
2018-06-13T22:42:09.284Z,98256.69
2018-06-13T22:44:38.995Z,98260.61
2018-06-13T22:47:08.443Z,98257.02
2018-06-13T22:49:37.954Z,98258.09
2018-06-13T22:55:02.381Z,98252.23
2018-06-13T22:57:32.454Z,98246.03
2018-06-13T23:00:02.291Z,98248.60
2018-06-13T23:02:32.258Z,98254.95
2018-06-13T23:05:02.471Z,98259.05
2018-06-13T23:07:33.156Z,98260.22
2018-06-13T23:10:02.848Z,98260.37
2018-06-13T23:12:32.510Z,98265.25
2018-06-13T23:15:02.387Z,98225.11
2018-06-13T23:17:34.527Z,98252.70
2018-06-13T23:20:05.132Z,98265.85
2018-06-13T23:22:34.772Z,98258.11
2018-06-13T23:25:05.208Z,98256.20
2018-06-13T23:27:34.872Z,98250.22
2018-06-13T23:30:04.668Z,98251.53
2018-06-13T23:32:34.493Z,98250.22
2018-06-13T23:35:08.130Z,98241.23
2018-06-13T23:37:37.828Z,98238.59
2018-06-13T23:40:11.345Z,98241.70
2018-06-13T23:42:42.366Z,98236.08
2018-06-13T23:45:13.285Z,98233.75
2018-06-13T23:47:44.193Z,98234.09
2018-06-13T23:50:14.908Z,98230.34
2018-06-13T23:52:45.028Z,98231.50
2018-06-13T23:55:16.825Z,98221.21
2018-06-13T23:57:47.029Z,98218.26
